METAR Data
IDs: Format: Raw Decoded Include TAF

Data at: 2332 UTC 26 Feb 2020

METAR for:K6B9 (Skaneateles Arpt, NY, US)
Text:K6B9 262315Z AUTO 13005KT 10SM OVC065 06/05 A2971 RMK AO2
Temperature: 6.0°C ( 43°F)
Dewpoint: 5.0°C ( 41°F) [RH = 93%]
Pressure (altimeter):29.71 inches Hg (1006.2 mb)
Winds:from the SE (130 degrees) at 6 MPH (5 knots; 2.6 m/s)
Visibility:10 or more sm (16+ km)
Ceiling:6500 feet AGL
Clouds: overcast cloud deck at 6500 feet AGL
QC Flag:automated observation with no human augmentation
Text:K6B9 262255Z AUTO 13006KT 10SM FEW011 OVC065 06/05 A2972 RMK AO2
Temperature: 6.0°C ( 43°F)
Dewpoint: 5.0°C ( 41°F) [RH = 93%]
Pressure (altimeter):29.72 inches Hg (1006.5 mb)
Winds:from the SE (130 degrees) at 7 MPH (6 knots; 3.1 m/s)
Visibility:10 or more sm (16+ km)
Ceiling:6500 feet AGL
Clouds: few clouds at 1100 feet AGL, overcast cloud deck at 6500 feet AGL
QC Flag:automated observation with no human augmentation
Text:K6B9 262235Z AUTO 12006G13KT 10SM SCT011 SCT018 OVC070 06/05 A2972 RMK AO2
Temperature: 6.0°C ( 43°F)
Dewpoint: 5.0°C ( 41°F) [RH = 93%]
Pressure (altimeter):29.72 inches Hg (1006.5 mb)
Winds:from the ESE (120 degrees) at 7 MPH (6 knots; 3.1 m/s) gusting to 15 MPH (13 knots; 6.7 m/s)
Visibility:10 or more sm (16+ km)
Ceiling:7000 feet AGL
Clouds: scattered clouds at 1100 feet AGL, scattered clouds at 1800 feet AGL, overcast cloud deck at 7000 feet AGL
QC Flag:automated observation with no human augmentation
Text:K6B9 262215Z AUTO 13006KT 10SM SCT015 BKN019 OVC070 06/05 A2974 RMK AO2
Temperature: 6.0°C ( 43°F)
Dewpoint: 5.0°C ( 41°F) [RH = 93%]
Pressure (altimeter):29.74 inches Hg (1007.2 mb)
Winds:from the SE (130 degrees) at 7 MPH (6 knots; 3.1 m/s)
Visibility:10 or more sm (16+ km)
Ceiling:1900 feet AGL
Clouds: scattered clouds at 1500 feet AGL, broken clouds at 1900 feet AGL, overcast cloud deck at 7000 feet AGL
QC Flag:automated observation with no human augmentation
Text:K6B9 262155Z AUTO 14004KT 10SM OVC015 07/06 A2974 RMK AO2
Temperature: 7.0°C ( 45°F)
Dewpoint: 6.0°C ( 43°F) [RH = 93%]
Pressure (altimeter):29.74 inches Hg (1007.2 mb)
Winds:from the SE (140 degrees) at 5 MPH (4 knots; 2.1 m/s)
Visibility:10 or more sm (16+ km)
Ceiling:1500 feet AGL
Clouds: overcast cloud deck at 1500 feet AGL
QC Flag:automated observation with no human augmentation
Text:K6B9 262135Z AUTO 12005KT 10SM BKN015 OVC026 07/05 A2974 RMK AO2
Temperature: 7.0°C ( 45°F)
Dewpoint: 5.0°C ( 41°F) [RH = 87%]
Pressure (altimeter):29.74 inches Hg (1007.2 mb)
Winds:from the ESE (120 degrees) at 6 MPH (5 knots; 2.6 m/s)
Visibility:10 or more sm (16+ km)
Ceiling:1500 feet AGL
Clouds: broken clouds at 1500 feet AGL, overcast cloud deck at 2600 feet AGL
QC Flag:automated observation with no human augmentation
Text:K6B9 262115Z AUTO VRB04KT 10SM FEW011 BKN027 OVC044 06/05 A2974 RMK AO2
Temperature: 6.0°C ( 43°F)
Dewpoint: 5.0°C ( 41°F) [RH = 93%]
Pressure (altimeter):29.74 inches Hg (1007.2 mb)
Winds:variable direction winds at 5 MPH (4 knots; 2.1 m/s)
Visibility:10 or more sm (16+ km)
Ceiling:2700 feet AGL
Clouds: few clouds at 1100 feet AGL, broken clouds at 2700 feet AGL, overcast cloud deck at 4400 feet AGL
QC Flag:automated observation with no human augmentation
Text:K6B9 262055Z AUTO VRB04KT 10SM BKN011 OVC025 06/05 A2974 RMK AO2
Temperature: 6.0°C ( 43°F)
Dewpoint: 5.0°C ( 41°F) [RH = 93%]
Pressure (altimeter):29.74 inches Hg (1007.2 mb)
Winds:variable direction winds at 5 MPH (4 knots; 2.1 m/s)
Visibility:10 or more sm (16+ km)
Ceiling:1100 feet AGL
Clouds: broken clouds at 1100 feet AGL, overcast cloud deck at 2500 feet AGL
QC Flag:automated observation with no human augmentation
Text:K6B9 262035Z AUTO 13005KT 10SM OVC010 05/05 A2975 RMK AO2
Temperature: 5.0°C ( 41°F)
Dewpoint: 5.0°C ( 41°F) [RH = 100%]
Pressure (altimeter):29.75 inches Hg (1007.5 mb)
Winds:from the SE (130 degrees) at 6 MPH (5 knots; 2.6 m/s)
Visibility:10 or more sm (16+ km)
Ceiling:1000 feet AGL
Clouds: overcast cloud deck at 1000 feet AGL
QC Flag:automated observation with no human augmentation
Text:K6B9 262015Z AUTO 00000KT 9SM OVC010 05/05 A2976 RMK AO2
Temperature: 5.0°C ( 41°F)
Dewpoint: 5.0°C ( 41°F) [RH = 100%]
Pressure (altimeter):29.76 inches Hg (1007.9 mb)
Winds:calm
Visibility: 9 sm ( 14 km)
Ceiling:1000 feet AGL
Clouds: overcast cloud deck at 1000 feet AGL
QC Flag:automated observation with no human augmentation
Text:K6B9 261955Z AUTO 00000KT 9SM OVC010 05/05 A2977 RMK AO2
Temperature: 5.0°C ( 41°F)
Dewpoint: 5.0°C ( 41°F) [RH = 100%]
Pressure (altimeter):29.77 inches Hg (1008.2 mb)
Winds:calm
Visibility: 9 sm ( 14 km)
Ceiling:1000 feet AGL
Clouds: overcast cloud deck at 1000 feet AGL
QC Flag:automated observation with no human augmentation
Text:K6B9 261935Z AUTO 00000KT 4SM BR OVC011 05/05 A2977 RMK AO2
Temperature: 5.0°C ( 41°F)
Dewpoint: 5.0°C ( 41°F) [RH = 100%]
Pressure (altimeter):29.77 inches Hg (1008.2 mb)
Winds:calm
Visibility: 4 sm ( 6 km)
Ceiling:1100 feet AGL
Clouds: overcast cloud deck at 1100 feet AGL
Weather:BR (mist)
QC Flag:automated observation with no human augmentation
Text:K6B9 261915Z AUTO 00000KT 8SM OVC011 05/04 A2978 RMK AO2
Temperature: 5.0°C ( 41°F)
Dewpoint: 4.0°C ( 39°F) [RH = 93%]
Pressure (altimeter):29.78 inches Hg (1008.5 mb)
Winds:calm
Visibility: 8 sm ( 13 km)
Ceiling:1100 feet AGL
Clouds: overcast cloud deck at 1100 feet AGL
QC Flag:automated observation with no human augmentation
Text:K6B9 261855Z AUTO 13004KT 10SM OVC010 05/04 A2978 RMK AO2
Temperature: 5.0°C ( 41°F)
Dewpoint: 4.0°C ( 39°F) [RH = 93%]
Pressure (altimeter):29.78 inches Hg (1008.5 mb)
Winds:from the SE (130 degrees) at 5 MPH (4 knots; 2.1 m/s)
Visibility:10 or more sm (16+ km)
Ceiling:1000 feet AGL
Clouds: overcast cloud deck at 1000 feet AGL
QC Flag:automated observation with no human augmentation
Text:K6B9 261835Z AUTO 00000KT 10SM OVC009 05/04 A2979 RMK AO2
Temperature: 5.0°C ( 41°F)
Dewpoint: 4.0°C ( 39°F) [RH = 93%]
Pressure (altimeter):29.79 inches Hg (1008.9 mb)
Winds:calm
Visibility:10 or more sm (16+ km)
Ceiling:900 feet AGL
Clouds: overcast cloud deck at 900 feet AGL
QC Flag:automated observation with no human augmentation
Text:K6B9 261815Z AUTO 00000KT 7SM OVC009 05/04 A2980 RMK AO2
Temperature: 5.0°C ( 41°F)
Dewpoint: 4.0°C ( 39°F) [RH = 93%]
Pressure (altimeter):29.80 inches Hg (1009.2 mb)
Winds:calm
Visibility: 7 sm ( 11 km)
Ceiling:900 feet AGL
Clouds: overcast cloud deck at 900 feet AGL
QC Flag:automated observation with no human augmentation
Text:K6B9 261755Z AUTO 00000KT 10SM OVC010 04/04 A2982 RMK AO2
Temperature: 4.0°C ( 39°F)
Dewpoint: 4.0°C ( 39°F) [RH = 100%]
Pressure (altimeter):29.82 inches Hg (1009.9 mb)
Winds:calm
Visibility:10 or more sm (16+ km)
Ceiling:1000 feet AGL
Clouds: overcast cloud deck at 1000 feet AGL
QC Flag:automated observation with no human augmentation
Text:K6B9 261735Z AUTO 00000KT 10SM OVC010 05/04 A2983 RMK AO2
Temperature: 5.0°C ( 41°F)
Dewpoint: 4.0°C ( 39°F) [RH = 93%]
Pressure (altimeter):29.83 inches Hg (1010.2 mb)
Winds:calm
Visibility:10 or more sm (16+ km)
Ceiling:1000 feet AGL
Clouds: overcast cloud deck at 1000 feet AGL
QC Flag:automated observation with no human augmentation
Text:K6B9 261715Z AUTO 00000KT 10SM OVC011 05/04 A2985 RMK AO2
Temperature: 5.0°C ( 41°F)
Dewpoint: 4.0°C ( 39°F) [RH = 93%]
Pressure (altimeter):29.85 inches Hg (1010.9 mb)
Winds:calm
Visibility:10 or more sm (16+ km)
Ceiling:1100 feet AGL
Clouds: overcast cloud deck at 1100 feet AGL
QC Flag:automated observation with no human augmentation
Text:K6B9 261655Z AUTO VRB04KT 10SM OVC012 04/04 A2986 RMK AO2
Temperature: 4.0°C ( 39°F)
Dewpoint: 4.0°C ( 39°F) [RH = 100%]
Pressure (altimeter):29.86 inches Hg (1011.3 mb)
Winds:variable direction winds at 5 MPH (4 knots; 2.1 m/s)
Visibility:10 or more sm (16+ km)
Ceiling:1200 feet AGL
Clouds: overcast cloud deck at 1200 feet AGL
QC Flag:automated observation with no human augmentation
Text:K6B9 261635Z AUTO 00000KT 7SM OVC012 04/04 A2986 RMK AO2
Temperature: 4.0°C ( 39°F)
Dewpoint: 4.0°C ( 39°F) [RH = 100%]
Pressure (altimeter):29.86 inches Hg (1011.3 mb)
Winds:calm
Visibility: 7 sm ( 11 km)
Ceiling:1200 feet AGL
Clouds: overcast cloud deck at 1200 feet AGL
QC Flag:automated observation with no human augmentation
Text:K6B9 261615Z AUTO 09004KT 3SM BR BKN012 OVC019 03/03 A2985 RMK AO2
Temperature: 3.0°C ( 37°F)
Dewpoint: 3.0°C ( 37°F) [RH = 100%]
Pressure (altimeter):29.85 inches Hg (1010.9 mb)
Winds:from the E (90 degrees) at 5 MPH (4 knots; 2.1 m/s)
Visibility: 3 sm ( 5 km)
Ceiling:1200 feet AGL
Clouds: broken clouds at 1200 feet AGL, overcast cloud deck at 1900 feet AGL
Weather:BR (mist)
QC Flag:automated observation with no human augmentation
Text:K6B9 261555Z AUTO 00000KT 2SM BR FEW013 OVC019 03/03 A2986 RMK AO2
Temperature: 3.0°C ( 37°F)
Dewpoint: 3.0°C ( 37°F) [RH = 100%]
Pressure (altimeter):29.86 inches Hg (1011.3 mb)
Winds:calm
Visibility: 2.00 sm ( 3.22 km)
Ceiling:1900 feet AGL
Clouds: few clouds at 1300 feet AGL, overcast cloud deck at 1900 feet AGL
Weather:BR (mist)
QC Flag:automated observation with no human augmentation
Text:K6B9 261535Z AUTO 00000KT 2SM BR BKN013 OVC019 03/03 A2987 RMK AO2
Temperature: 3.0°C ( 37°F)
Dewpoint: 3.0°C ( 37°F) [RH = 100%]
Pressure (altimeter):29.87 inches Hg (1011.6 mb)
Winds:calm
Visibility: 2.00 sm ( 3.22 km)
Ceiling:1300 feet AGL
Clouds: broken clouds at 1300 feet AGL, overcast cloud deck at 1900 feet AGL
Weather:BR (mist)
QC Flag:automated observation with no human augmentation
Text:K6B9 261515Z AUTO 00000KT 1 1/4SM BR FEW003 BKN014 OVC019 02/02 A2988 RMK AO2
Temperature: 2.0°C ( 36°F)
Dewpoint: 2.0°C ( 36°F) [RH = 100%]
Pressure (altimeter):29.88 inches Hg (1011.9 mb)
Winds:calm
Visibility: 1.25 sm ( 2.01 km)
Ceiling:1400 feet AGL
Clouds: few clouds at 300 feet AGL, broken clouds at 1400 feet AGL, overcast cloud deck at 1900 feet AGL
Weather:BR (mist)
QC Flag:automated observation with no human augmentation
Text:K6B9 261455Z AUTO 00000KT 1SM BR SCT004 OVC021 02/02 A2988 RMK AO2
Temperature: 2.0°C ( 36°F)
Dewpoint: 2.0°C ( 36°F) [RH = 100%]
Pressure (altimeter):29.88 inches Hg (1011.9 mb)
Winds:calm
Visibility: 1.00 sm ( 1.61 km)
Ceiling:2100 feet AGL
Clouds: scattered clouds at 400 feet AGL, overcast cloud deck at 2100 feet AGL
Weather:BR (mist)
QC Flag:automated observation with no human augmentation
Text:K6B9 261435Z AUTO 00000KT 3/4SM BR BKN003 OVC019 02/02 A2989 RMK AO2
Temperature: 2.0°C ( 36°F)
Dewpoint: 2.0°C ( 36°F) [RH = 100%]
Pressure (altimeter):29.89 inches Hg (1012.3 mb)
Winds:calm
Visibility: 0.75 sm ( 1.21 km)
Ceiling:300 feet AGL
Clouds: broken clouds at 300 feet AGL, overcast cloud deck at 1900 feet AGL
Weather:BR (mist)
QC Flag:automated observation with no human augmentation
Text:K6B9 261415Z AUTO 00000KT 3/4SM BR SCT002 OVC018 02/02 A2989 RMK AO2
Temperature: 2.0°C ( 36°F)
Dewpoint: 2.0°C ( 36°F) [RH = 100%]
Pressure (altimeter):29.89 inches Hg (1012.3 mb)
Winds:calm
Visibility: 0.75 sm ( 1.21 km)
Ceiling:1800 feet AGL
Clouds: scattered clouds at 200 feet AGL, overcast cloud deck at 1800 feet AGL
Weather:BR (mist)
QC Flag:automated observation with no human augmentation
Text:K6B9 261355Z AUTO 00000KT 1SM BR OVC018 02/02 A2990 RMK AO2 P0001
Temperature: 2.0°C ( 36°F)
Dewpoint: 2.0°C ( 36°F) [RH = 100%]
Pressure (altimeter):29.90 inches Hg (1012.6 mb)
Winds:calm
Visibility: 1.00 sm ( 1.61 km)
Ceiling:1800 feet AGL
Clouds: overcast cloud deck at 1800 feet AGL
Weather:BR (mist)
QC Flag:automated observation with no human augmentation
Text:K6B9 261335Z AUTO 00000KT 1/2SM -UP OVC021 02/01 A2990 RMK AO2
Temperature: 2.0°C ( 36°F)
Dewpoint: 1.0°C ( 34°F) [RH = 93%]
Pressure (altimeter):29.90 inches Hg (1012.6 mb)
Winds:calm
Visibility: 0.50 sm ( 0.80 km)
Ceiling:2100 feet AGL
Clouds: overcast cloud deck at 2100 feet AGL
Weather:UP (unknown precipitation)
QC Flag:automated observation with no human augmentation
Text:K6B9 261315Z AUTO 00000KT 1SM -UP OVC026 02/01 A2990 RMK AO2
Temperature: 2.0°C ( 36°F)
Dewpoint: 1.0°C ( 34°F) [RH = 93%]
Pressure (altimeter):29.90 inches Hg (1012.6 mb)
Winds:calm
Visibility: 1.00 sm ( 1.61 km)
Ceiling:2600 feet AGL
Clouds: overcast cloud deck at 2600 feet AGL
Weather:UP (unknown precipitation)
QC Flag:automated observation with no human augmentation
Text:K6B9 261255Z AUTO 00000KT 3/4SM -UP OVC029 01/01 A2990 RMK AO2
Temperature: 1.0°C ( 34°F)
Dewpoint: 1.0°C ( 34°F) [RH = 100%]
Pressure (altimeter):29.90 inches Hg (1012.6 mb)
Winds:calm
Visibility: 0.75 sm ( 1.21 km)
Ceiling:2900 feet AGL
Clouds: overcast cloud deck at 2900 feet AGL
Weather:UP (unknown precipitation)
QC Flag:automated observation with no human augmentation
Text:K6B9 261235Z AUTO 00000KT 3/4SM BR OVC031 01/01 A2989 RMK AO2
Temperature: 1.0°C ( 34°F)
Dewpoint: 1.0°C ( 34°F) [RH = 100%]
Pressure (altimeter):29.89 inches Hg (1012.3 mb)
Winds:calm
Visibility: 0.75 sm ( 1.21 km)
Ceiling:3100 feet AGL
Clouds: overcast cloud deck at 3100 feet AGL
Weather:BR (mist)
QC Flag:automated observation with no human augmentation
Text:K6B9 261215Z AUTO 00000KT 1SM -UP SCT004 OVC031 01/01 A2989 RMK AO2
Temperature: 1.0°C ( 34°F)
Dewpoint: 1.0°C ( 34°F) [RH = 100%]
Pressure (altimeter):29.89 inches Hg (1012.3 mb)
Winds:calm
Visibility: 1.00 sm ( 1.61 km)
Ceiling:3100 feet AGL
Clouds: scattered clouds at 400 feet AGL, overcast cloud deck at 3100 feet AGL
Weather:UP (unknown precipitation)
QC Flag:automated observation with no human augmentation
Text:K6B9 261155Z AUTO 00000KT 1SM BR OVC003 01/01 A2989 RMK AO2
Temperature: 1.0°C ( 34°F)
Dewpoint: 1.0°C ( 34°F) [RH = 100%]
Pressure (altimeter):29.89 inches Hg (1012.3 mb)
Winds:calm
Visibility: 1.00 sm ( 1.61 km)
Ceiling:300 feet AGL
Clouds: overcast cloud deck at 300 feet AGL
Weather:BR (mist)
QC Flag:automated observation with no human augmentation
Text:K6B9 261135Z AUTO 00000KT 1 3/4SM BR OVC003 01/01 A2989 RMK AO2
Temperature: 1.0°C ( 34°F)
Dewpoint: 1.0°C ( 34°F) [RH = 100%]
Pressure (altimeter):29.89 inches Hg (1012.3 mb)
Winds:calm
Visibility: 1.75 sm ( 2.82 km)
Ceiling:300 feet AGL
Clouds: overcast cloud deck at 300 feet AGL
Weather:BR (mist)
QC Flag:automated observation with no human augmentation